Silver Knolls, Nevada
Current Conditions -  °F | °C
As of 6:35 PM on Saturday 20 Dec 2014 (Local Time) from KRTS Reporting Station
Broken Clouds Broken Clouds  
Wind Chill: 37°   Ceiling: 4400
Heat Index: 41°   Visibility: 10mi
Dew Point: 34°   Wind: 6mph
Humidity: 76%   Direction: 320°NW
Pressure: 30.14"   Gusts: NA
Location:  39.7378°N, 119.889°W
Report Text: KRTS 210235Z AUTO 32005KT 10SM BKN044 BKN060 05/01 A3014 RMK AO2
Loading
Personal Weather Stations






























Interactive Weather Map New forecast layout! Learn more

10-Day Weather Forecast

Advertisements
Track Severe Weather on mobile